createdAt,value
2017-02-04T00:00:28.868Z,1008.69
2017-02-04T00:01:09.537Z,1008.68
2017-02-04T00:01:50.193Z,1008.7
2017-02-04T00:02:31.013Z,1008.69
2017-02-04T00:03:11.675Z,1008.68
2017-02-04T00:03:52.343Z,1008.69
2017-02-04T00:04:32.976Z,1008.7
2017-02-04T00:05:13.694Z,1008.75
2017-02-04T00:05:54.385Z,1008.75
2017-02-04T00:06:35.108Z,1008.84
2017-02-04T00:07:15.846Z,1008.72
2017-02-04T00:07:56.597Z,1008.74
2017-02-04T00:08:37.331Z,1008.76
2017-02-04T00:09:18.072Z,1008.74
2017-02-04T00:09:58.664Z,1008.73
2017-02-04T00:10:39.407Z,1008.81
2017-02-04T00:11:20.096Z,1008.81
2017-02-04T00:12:00.752Z,1008.85
2017-02-04T00:12:41.430Z,1008.7
2017-02-04T00:13:22.146Z,1008.81
2017-02-04T00:14:02.875Z,1008.9
2017-02-04T00:14:43.516Z,1008.91
2017-02-04T00:15:24.198Z,1008.88
2017-02-04T00:16:04.868Z,1008.82
2017-02-04T00:16:45.545Z,1008.85
2017-02-04T00:17:26.205Z,1008.85
2017-02-04T00:18:06.904Z,1009.02
2017-02-04T00:18:47.601Z,1008.88
2017-02-04T00:19:28.377Z,1008.82
2017-02-04T00:20:09.188Z,1008.83
2017-02-04T00:20:50.619Z,1008.84
2017-02-04T00:21:31.306Z,1008.86
2017-02-04T00:22:12.050Z,1008.99
2017-02-04T00:22:52.758Z,1008.88
2017-02-04T00:23:33.421Z,1008.91
2017-02-04T00:24:14.102Z,1008.89
2017-02-04T00:24:54.783Z,1008.96
2017-02-04T00:25:35.490Z,1008.92
2017-02-04T00:26:16.168Z,1008.98
2017-02-04T00:26:56.887Z,1008.82
2017-02-04T00:27:37.545Z,1009.03
2017-02-04T00:28:18.200Z,1008.84
2017-02-04T00:28:58.932Z,1008.8
2017-02-04T00:29:39.579Z,1008.8
2017-02-04T00:30:20.235Z,1008.74
2017-02-04T00:31:00.884Z,1008.7
2017-02-04T00:31:41.533Z,1008.85
2017-02-04T00:32:22.221Z,1008.86
2017-02-04T00:33:02.865Z,1008.82
2017-02-04T00:33:43.667Z,1008.84
2017-02-04T00:34:24.254Z,1008.84
2017-02-04T00:35:04.904Z,1008.94
2017-02-04T00:35:45.606Z,1008.8
2017-02-04T00:36:26.404Z,1008.83
2017-02-04T00:37:07.051Z,1008.89
2017-02-04T00:37:47.714Z,1008.83
2017-02-04T00:38:28.412Z,1008.88
2017-02-04T00:39:09.122Z,1008.81
2017-02-04T00:39:49.838Z,1008.92
2017-02-04T00:40:30.510Z,1008.84
2017-02-04T00:41:11.163Z,1008.85
2017-02-04T00:41:51.817Z,1008.8
2017-02-04T00:42:32.465Z,1008.88
2017-02-04T00:43:13.192Z,1008.84
2017-02-04T00:43:53.853Z,1008.96
2017-02-04T00:44:34.532Z,1008.83
2017-02-04T00:45:15.258Z,1008.83
2017-02-04T00:45:55.990Z,1008.83
2017-02-04T00:46:36.641Z,1008.94
2017-02-04T00:47:17.295Z,1008.93
2017-02-04T00:47:57.956Z,1008.78
2017-02-04T00:48:38.610Z,1008.67
2017-02-04T00:49:19.264Z,1008.69
2017-02-04T00:49:59.952Z,1008.74
2017-02-04T00:50:40.663Z,1008.72
2017-02-04T00:51:21.329Z,1008.74
2017-02-04T00:52:02.002Z,1008.8
2017-02-04T00:52:43.245Z,1008.75
2017-02-04T00:53:23.964Z,1008.62
2017-02-04T00:54:04.627Z,1008.63
2017-02-04T00:54:45.342Z,1008.72
2017-02-04T00:55:25.998Z,1008.66
2017-02-04T00:56:06.723Z,1008.75
2017-02-04T00:56:47.475Z,1008.64
2017-02-04T00:57:28.199Z,1008.65
2017-02-04T00:58:08.852Z,1008.67
2017-02-04T00:58:49.592Z,1008.52
2017-02-04T00:59:30.265Z,1008.55
2017-02-04T01:00:10.912Z,1008.49
2017-02-04T01:00:51.647Z,1008.59
2017-02-04T01:01:32.373Z,1008.61
2017-02-04T01:02:13.025Z,1008.61
2017-02-04T01:02:53.705Z,1008.56
2017-02-04T01:03:34.411Z,1008.71
2017-02-04T01:04:15.113Z,1008.64
2017-02-04T01:04:55.762Z,1008.64
2017-02-04T01:05:36.464Z,1008.62
2017-02-04T01:06:17.195Z,1008.63
2017-02-04T01:06:57.880Z,1008.67
2017-02-04T01:07:38.558Z,1008.65
2017-02-04T01:08:19.215Z,1008.73
2017-02-04T01:08:59.968Z,1008.54
2017-02-04T01:09:40.691Z,1008.49
2017-02-04T01:10:21.288Z,1008.46
2017-02-04T01:11:02.031Z,1008.5
2017-02-04T01:11:42.680Z,1008.38
2017-02-04T01:12:23.335Z,1008.49
2017-02-04T01:13:04.002Z,1008.59
2017-02-04T01:13:44.730Z,1008.49
2017-02-04T01:14:25.369Z,1008.36
2017-02-04T01:15:06.015Z,1008.37
2017-02-04T01:15:46.783Z,1008.34
2017-02-04T01:16:27.503Z,1008.24
2017-02-04T01:17:08.157Z,1008.39
2017-02-04T01:17:48.858Z,1008.21
2017-02-04T01:18:29.565Z,1008.22
2017-02-04T01:19:10.283Z,1008.24
2017-02-04T01:19:51.488Z,1008.24
2017-02-04T01:20:32.166Z,1008.3
2017-02-04T01:21:12.818Z,1008.22
2017-02-04T01:21:53.546Z,1008.18
2017-02-04T01:22:34.215Z,1008.21
2017-02-04T01:23:14.865Z,1008.09
2017-02-04T01:23:55.561Z,1008.11
2017-02-04T01:24:36.328Z,1008.03
2017-02-04T01:25:16.972Z,1008.13
2017-02-04T01:25:57.623Z,1008.12
2017-02-04T01:26:38.359Z,1008.09
2017-02-04T01:27:19.015Z,1008.19
2017-02-04T01:27:59.666Z,1008.01
2017-02-04T01:28:40.329Z,1008.2
2017-02-04T01:29:20.974Z,1008.07
2017-02-04T01:30:01.628Z,1008.07
2017-02-04T01:30:42.320Z,1008.06
2017-02-04T01:31:23.058Z,1008.03
2017-02-04T01:32:03.838Z,1008.06
2017-02-04T01:32:44.546Z,1007.95
2017-02-04T01:33:25.270Z,1007.99
2017-02-04T01:34:05.942Z,1007.85
2017-02-04T01:34:46.644Z,1008.03
2017-02-04T01:35:27.339Z,1007.84
2017-02-04T01:36:08.116Z,1007.86
2017-02-04T01:36:48.774Z,1007.88
2017-02-04T01:37:29.415Z,1007.81
2017-02-04T01:38:10.160Z,1007.79
2017-02-04T01:38:50.854Z,1007.75
2017-02-04T01:39:31.537Z,1007.78
2017-02-04T01:40:12.208Z,1007.84
2017-02-04T01:40:52.886Z,1007.79
2017-02-04T01:41:33.584Z,1007.87
2017-02-04T01:42:14.244Z,1007.82
2017-02-04T01:42:54.985Z,1007.79
2017-02-04T01:43:35.657Z,1007.79
2017-02-04T01:44:16.384Z,1007.8
2017-02-04T01:44:57.042Z,1007.77
2017-02-04T01:45:37.700Z,1007.73
2017-02-04T01:46:18.463Z,1007.81
2017-02-04T01:46:59.221Z,1007.82
2017-02-04T01:47:39.798Z,1007.79
2017-02-04T01:48:20.477Z,1007.74
2017-02-04T01:49:01.159Z,1007.81
2017-02-04T01:49:41.810Z,1007.7
2017-02-04T01:50:22.456Z,1007.76
2017-02-04T01:51:03.106Z,1007.86
2017-02-04T01:51:43.751Z,1007.82
2017-02-04T01:52:24.474Z,1007.82
2017-02-04T01:53:05.135Z,1007.9
2017-02-04T01:53:45.794Z,1007.94
2017-02-04T01:54:26.479Z,1007.99
2017-02-04T01:55:07.130Z,1008.08
2017-02-04T01:55:47.874Z,1007.87
2017-02-04T01:56:28.541Z,1007.94
2017-02-04T01:57:09.308Z,1008.03
2017-02-04T01:57:49.948Z,1008.08
2017-02-04T01:58:30.597Z,1008.08
2017-02-04T01:59:11.255Z,1008.11
2017-02-04T01:59:51.903Z,1008.06
2017-02-04T02:00:32.559Z,1008.2
2017-02-04T02:01:13.234Z,1008.13
2017-02-04T02:01:53.881Z,1008.04
2017-02-04T02:02:34.557Z,1008.03
2017-02-04T02:03:15.254Z,1007.98
2017-02-04T02:03:55.970Z,1008.1
2017-02-04T02:04:36.621Z,1008.14
2017-02-04T02:05:17.269Z,1008.08
2017-02-04T02:05:57.955Z,1008.07
2017-02-04T02:06:38.609Z,1008.07
2017-02-04T02:07:19.262Z,1008.24
2017-02-04T02:07:59.991Z,1008.19
2017-02-04T02:08:40.728Z,1008.08
2017-02-04T02:09:21.418Z,1008.1
2017-02-04T02:10:02.109Z,1008.15
2017-02-04T02:10:42.853Z,1008.2
2017-02-04T02:11:23.568Z,1008.08
2017-02-04T02:12:04.206Z,1008.18
2017-02-04T02:12:44.870Z,1008.17
2017-02-04T02:13:25.574Z,1008.28
2017-02-04T02:14:06.221Z,1008.18
2017-02-04T02:14:46.884Z,1008.18
2017-02-04T02:15:27.568Z,1008.09
2017-02-04T02:16:08.213Z,1008.14
2017-02-04T02:16:48.866Z,1008.21
2017-02-04T02:17:29.523Z,1008.08
2017-02-04T02:18:10.211Z,1008.24
2017-02-04T02:18:50.905Z,1008.11
2017-02-04T02:19:31.517Z,1008.09
2017-02-04T02:20:12.288Z,1008.16
2017-02-04T02:20:52.941Z,1008.14
2017-02-04T02:21:33.597Z,1008.14
2017-02-04T02:22:14.275Z,1008.09
2017-02-04T02:22:55.026Z,1008.14
2017-02-04T02:23:35.764Z,1008.22
2017-02-04T02:24:16.449Z,1008.15
2017-02-04T02:24:57.101Z,1008.31
2017-02-04T02:25:37.779Z,1008.17
2017-02-04T02:26:18.458Z,1008.22
2017-02-04T02:26:59.221Z,1008.2
2017-02-04T02:27:39.951Z,1008.28
2017-02-04T02:28:20.638Z,1008.25
2017-02-04T02:29:01.291Z,1008.24
2017-02-04T02:29:42.996Z,1008.26
2017-02-04T02:30:23.699Z,1008.27
2017-02-04T02:31:04.346Z,1008.23
2017-02-04T02:31:45.084Z,1008.28
2017-02-04T02:32:25.758Z,1008.24
2017-02-04T02:33:06.438Z,1008.33
2017-02-04T02:33:47.107Z,1008.27
2017-02-04T02:34:27.766Z,1008.39
2017-02-04T02:35:08.500Z,1008.4
2017-02-04T02:35:49.149Z,1008.41
2017-02-04T02:36:29.852Z,1008.36
2017-02-04T02:37:10.533Z,1008.47
2017-02-04T02:37:51.239Z,1008.48
2017-02-04T02:38:31.901Z,1008.46
2017-02-04T02:39:12.629Z,1008.6
2017-02-04T02:39:53.300Z,1008.54
2017-02-04T02:40:33.948Z,1008.49
2017-02-04T02:41:14.680Z,1008.56
2017-02-04T02:41:55.364Z,1008.53
2017-02-04T02:42:36.101Z,1008.53
2017-02-04T02:43:16.770Z,1008.51
2017-02-04T02:43:57.437Z,1008.48
2017-02-04T02:44:38.102Z,1008.45
2017-02-04T02:45:18.753Z,1008.45
2017-02-04T02:45:59.406Z,1008.44
2017-02-04T02:46:40.083Z,1008.46
2017-02-04T02:47:20.786Z,1008.47
2017-02-04T02:48:01.475Z,1008.51
2017-02-04T02:48:42.255Z,1008.46
2017-02-04T02:49:22.924Z,1008.41
2017-02-04T02:50:03.710Z,1008.43
2017-02-04T02:50:44.285Z,1008.46
2017-02-04T02:51:24.947Z,1008.37
2017-02-04T02:52:05.587Z,1008.34
2017-02-04T02:52:46.246Z,1008.25
2017-02-04T02:53:26.898Z,1008.33
2017-02-04T02:54:07.558Z,1008.31
2017-02-04T02:54:48.210Z,1008.47
2017-02-04T02:55:28.937Z,1008.37
2017-02-04T02:56:09.588Z,1008.47
2017-02-04T02:56:50.232Z,1008.48
2017-02-04T02:57:30.896Z,1008.52
2017-02-04T02:58:11.548Z,1008.47
2017-02-04T02:58:52.250Z,1008.67
2017-02-04T02:59:32.904Z,1008.51
2017-02-04T03:00:13.666Z,1008.54
2017-02-04T03:00:54.314Z,1008.58
2017-02-04T03:01:34.967Z,1008.59
2017-02-04T03:02:15.649Z,1008.63
2017-02-04T03:02:56.398Z,1008.59
2017-02-04T03:03:37.084Z,1008.56
2017-02-04T03:04:17.711Z,1008.57
2017-02-04T03:04:58.480Z,1008.53
2017-02-04T03:05:39.146Z,1008.62
2017-02-04T03:06:19.802Z,1008.54
2017-02-04T03:07:01.450Z,1008.63
2017-02-04T03:07:42.202Z,1008.58
2017-02-04T03:08:22.856Z,1008.66
2017-02-04T03:09:03.535Z,1008.64
2017-02-04T03:09:44.257Z,1008.63
2017-02-04T03:10:24.951Z,1008.7
2017-02-04T03:11:05.592Z,1008.6
2017-02-04T03:11:46.253Z,1008.63
2017-02-04T03:12:27.020Z,1008.57
2017-02-04T03:13:07.669Z,1008.6
2017-02-04T03:13:48.319Z,1008.69
2017-02-04T03:14:29.023Z,1008.56
2017-02-04T03:15:09.674Z,1008.61
2017-02-04T03:15:50.325Z,1008.6
2017-02-04T03:16:31.056Z,1008.55
2017-02-04T03:17:11.707Z,1008.59
2017-02-04T03:17:52.358Z,1008.53
2017-02-04T03:18:33.067Z,1008.59
2017-02-04T03:19:13.714Z,1008.55
2017-02-04T03:19:54.370Z,1008.58
2017-02-04T03:20:35.023Z,1008.5
2017-02-04T03:21:15.700Z,1008.53
2017-02-04T03:21:56.369Z,1008.54
2017-02-04T03:22:37.004Z,1008.46
2017-02-04T03:23:17.755Z,1008.42
2017-02-04T03:23:58.451Z,1008.46
2017-02-04T03:24:39.120Z,1008.52
2017-02-04T03:25:19.780Z,1008.47
2017-02-04T03:26:01.196Z,1008.4
2017-02-04T03:26:41.849Z,1008.44
2017-02-04T03:27:22.609Z,1008.41
2017-02-04T03:28:03.306Z,1008.41
2017-02-04T03:28:43.958Z,1008.34
2017-02-04T03:29:24.617Z,1008.42
2017-02-04T03:30:05.364Z,1008.43
2017-02-04T03:30:46.053Z,1008.38
2017-02-04T03:31:26.777Z,1008.42
2017-02-04T03:32:07.430Z,1008.34
2017-02-04T03:32:48.085Z,1008.31
2017-02-04T03:33:28.736Z,1008.34
2017-02-04T03:34:09.430Z,1008.32
2017-02-04T03:34:50.141Z,1008.33
2017-02-04T03:35:30.796Z,1008.36
2017-02-04T03:36:11.445Z,1008.26
2017-02-04T03:36:52.189Z,1008.32
2017-02-04T03:37:32.837Z,1008.36
2017-02-04T03:38:13.491Z,1008.33
2017-02-04T03:38:54.241Z,1008.31
2017-02-04T03:39:34.932Z,1008.31
2017-02-04T03:40:15.588Z,1008.41
2017-02-04T03:40:56.231Z,1008.42
2017-02-04T03:41:36.880Z,1008.37
2017-02-04T03:42:17.532Z,1008.31
2017-02-04T03:42:58.181Z,1008.31
2017-02-04T03:43:38.942Z,1008.39
2017-02-04T03:44:19.595Z,1008.35
2017-02-04T03:45:00.249Z,1008.4
2017-02-04T03:45:40.894Z,1008.34
2017-02-04T03:46:21.650Z,1008.38
2017-02-04T03:47:02.307Z,1008.46
2017-02-04T03:47:42.961Z,1008.42
2017-02-04T03:48:23.614Z,1008.46
2017-02-04T03:49:04.266Z,1008.42
2017-02-04T03:49:44.999Z,1008.44
2017-02-04T03:50:25.660Z,1008.42
2017-02-04T03:51:06.358Z,1008.33
2017-02-04T03:51:47.013Z,1008.44
2017-02-04T03:52:27.742Z,1008.43
2017-02-04T03:53:08.417Z,1008.47
2017-02-04T03:53:49.214Z,1008.46
2017-02-04T03:54:29.781Z,1008.41
2017-02-04T03:55:11.333Z,1008.42
2017-02-04T03:55:51.972Z,1008.46
2017-02-04T03:56:32.755Z,1008.51
2017-02-04T03:57:13.524Z,1008.45
2017-02-04T03:57:54.217Z,1008.44
2017-02-04T03:58:34.888Z,1008.46
2017-02-04T03:59:15.612Z,1008.5
2017-02-04T03:59:56.290Z,1008.48
2017-02-04T04:00:36.979Z,1008.44
2017-02-04T04:01:17.646Z,1008.49
2017-02-04T04:01:58.968Z,1008.47
2017-02-04T04:02:39.657Z,1008.6
2017-02-04T04:03:20.417Z,1008.53
2017-02-04T04:04:01.840Z,1008.51
2017-02-04T04:04:42.553Z,1008.49
2017-02-04T04:05:23.199Z,1008.47
2017-02-04T04:06:03.933Z,1008.48
2017-02-04T04:06:44.654Z,1008.46
2017-02-04T04:07:25.241Z,1008.38
2017-02-04T04:08:06.842Z,1008.4
2017-02-04T04:08:47.564Z,1008.42
2017-02-04T04:09:28.141Z,1008.27
2017-02-04T04:10:08.868Z,1008.38
2017-02-04T04:10:49.523Z,1008.34
2017-02-04T04:11:30.221Z,1008.31
2017-02-04T04:12:10.914Z,1008.31
2017-02-04T04:12:51.624Z,1008.29
2017-02-04T04:13:32.295Z,1008.3
2017-02-04T04:14:12.941Z,1008.3
2017-02-04T04:14:53.669Z,1008.26
2017-02-04T04:15:34.309Z,1008.27
2017-02-04T04:16:14.951Z,1008.25
2017-02-04T04:16:55.637Z,1008.26
2017-02-04T04:17:36.287Z,1008.2
2017-02-04T04:18:16.937Z,1008.26
2017-02-04T04:18:57.673Z,1008.2
2017-02-04T04:19:38.400Z,1008.18
2017-02-04T04:20:19.097Z,1008.15
2017-02-04T04:20:59.789Z,1008.2
2017-02-04T04:21:40.466Z,1008.24
2017-02-04T04:22:21.121Z,1008.18
2017-02-04T04:23:01.795Z,1008.17
2017-02-04T04:23:42.503Z,1008.17
2017-02-04T04:24:23.153Z,1008.12
2017-02-04T04:25:03.920Z,1008.07
2017-02-04T04:25:44.488Z,1008.11
2017-02-04T04:26:25.144Z,1008.07
2017-02-04T04:27:05.868Z,1008.1
2017-02-04T04:27:46.569Z,1008.05
2017-02-04T04:28:27.240Z,1007.95
2017-02-04T04:29:07.993Z,1008.01
2017-02-04T04:29:48.721Z,1008.04
2017-02-04T04:30:29.339Z,1007.97
2017-02-04T04:31:10.047Z,1008.02
2017-02-04T04:31:50.701Z,1007.99
2017-02-04T04:32:31.350Z,1007.93
2017-02-04T04:33:12.107Z,1008.02
2017-02-04T04:33:52.789Z,1007.98
2017-02-04T04:34:33.556Z,1007.97
2017-02-04T04:35:14.189Z,1007.94
2017-02-04T04:35:54.843Z,1007.96
2017-02-04T04:36:35.531Z,1008.02
2017-02-04T04:37:16.191Z,1007.94
2017-02-04T04:37:56.831Z,1007.96
2017-02-04T04:38:37.487Z,1007.97
2017-02-04T04:39:18.185Z,1008.03
2017-02-04T04:39:58.962Z,1007.92
2017-02-04T04:40:39.639Z,1007.84
2017-02-04T04:41:20.345Z,1007.86
2017-02-04T04:42:01.032Z,1007.83
2017-02-04T04:42:41.784Z,1007.86
2017-02-04T04:43:22.465Z,1007.77
2017-02-04T04:44:03.126Z,1007.86
2017-02-04T04:44:43.771Z,1007.79
2017-02-04T04:45:24.437Z,1007.85
2017-02-04T04:46:05.129Z,1007.83
2017-02-04T04:46:45.774Z,1007.82
2017-02-04T04:47:26.484Z,1007.82
2017-02-04T04:48:07.134Z,1007.8
2017-02-04T04:48:47.792Z,1007.81
2017-02-04T04:49:28.473Z,1007.79
2017-02-04T04:50:09.124Z,1007.83
2017-02-04T04:50:49.774Z,1007.87
2017-02-04T04:51:30.458Z,1007.85
2017-02-04T04:52:11.105Z,1007.87
2017-02-04T04:52:51.817Z,1007.97
2017-02-04T04:53:32.417Z,1007.88
2017-02-04T04:54:13.139Z,1007.89
2017-02-04T04:54:53.792Z,1007.88
2017-02-04T04:55:34.455Z,1007.89
2017-02-04T04:56:15.176Z,1007.92
2017-02-04T04:56:55.864Z,1007.96
2017-02-04T04:57:36.514Z,1007.95
2017-02-04T04:58:17.240Z,1007.95
2017-02-04T04:58:57.918Z,1007.97
2017-02-04T04:59:38.611Z,1007.96
2017-02-04T05:00:19.255Z,1007.97
2017-02-04T05:00:59.944Z,1007.95
2017-02-04T05:01:40.613Z,1007.93
2017-02-04T05:02:21.267Z,1007.89
2017-02-04T05:03:01.976Z,1007.91
2017-02-04T05:03:42.648Z,1007.94
2017-02-04T05:04:23.300Z,1007.91
2017-02-04T05:05:03.976Z,1007.92
2017-02-04T05:05:44.716Z,1007.93
2017-02-04T05:06:25.384Z,1007.92
2017-02-04T05:07:06.044Z,1007.9
2017-02-04T05:07:46.743Z,1007.93
2017-02-04T05:08:27.399Z,1007.91
2017-02-04T05:09:08.054Z,1007.89
2017-02-04T05:09:48.725Z,1007.87
2017-02-04T05:10:29.384Z,1007.87
2017-02-04T05:11:10.039Z,1007.9
2017-02-04T05:11:50.687Z,1007.89
2017-02-04T05:12:31.343Z,1007.85
2017-02-04T05:13:11.996Z,1007.85
2017-02-04T05:13:52.670Z,1007.83
2017-02-04T05:14:33.346Z,1007.8
2017-02-04T05:15:14.010Z,1007.87
2017-02-04T05:15:54.659Z,1007.9
2017-02-04T05:16:35.313Z,1007.8
2017-02-04T05:17:15.962Z,1007.83
2017-02-04T05:17:56.622Z,1007.8
2017-02-04T05:18:37.296Z,1007.81
2017-02-04T05:19:18.029Z,1007.8
2017-02-04T05:19:58.685Z,1007.89
2017-02-04T05:20:39.390Z,1007.85
2017-02-04T05:21:20.079Z,1007.87
2017-02-04T05:22:00.742Z,1007.83
2017-02-04T05:22:41.394Z,1007.9
2017-02-04T05:23:22.042Z,1007.87
2017-02-04T05:24:02.801Z,1007.89
2017-02-04T05:24:43.454Z,1007.83
2017-02-04T05:25:24.145Z,1007.84
2017-02-04T05:26:04.860Z,1007.79
2017-02-04T05:26:45.545Z,1007.81
2017-02-04T05:27:26.207Z,1007.82
2017-02-04T05:28:06.898Z,1007.81
2017-02-04T05:28:48.228Z,1007.8
2017-02-04T05:29:28.945Z,1007.84
2017-02-04T05:30:09.602Z,1007.82
2017-02-04T05:30:50.380Z,1007.8
2017-02-04T05:31:31.045Z,1007.87
2017-02-04T05:32:11.765Z,1007.89
2017-02-04T05:32:52.419Z,1007.86
2017-02-04T05:33:33.078Z,1007.87
2017-02-04T05:34:13.804Z,1007.89
2017-02-04T05:34:54.536Z,1007.92
2017-02-04T05:35:35.246Z,1007.91
2017-02-04T05:36:15.894Z,1007.92
2017-02-04T05:36:56.663Z,1007.93
2017-02-04T05:37:37.401Z,1007.92
2017-02-04T05:38:18.083Z,1007.92
2017-02-04T05:38:58.754Z,1008.01
2017-02-04T05:39:39.412Z,1007.97
2017-02-04T05:40:20.154Z,1007.99
2017-02-04T05:41:00.806Z,1007.98
2017-02-04T05:41:41.447Z,1008.06
2017-02-04T05:42:22.182Z,1008.07
2017-02-04T05:43:02.906Z,1008.01
2017-02-04T05:43:43.558Z,1007.97
2017-02-04T05:44:24.293Z,1008.1
2017-02-04T05:45:05.015Z,1008.09
2017-02-04T05:45:45.756Z,1008.04
2017-02-04T05:46:26.453Z,1008.1
2017-02-04T05:47:07.987Z,1008.09
2017-02-04T05:47:48.672Z,1008.08
2017-02-04T05:48:29.318Z,1008.08
2017-02-04T05:49:10.074Z,1008.11
2017-02-04T05:49:50.761Z,1008.07
2017-02-04T05:50:31.471Z,1008.08
2017-02-04T05:51:12.133Z,1008.06
2017-02-04T05:51:52.829Z,1008.09
2017-02-04T05:52:33.519Z,1008.03
2017-02-04T05:53:14.212Z,1008.1
2017-02-04T05:53:54.941Z,1008.07
2017-02-04T05:54:35.600Z,1008.11
2017-02-04T05:55:16.264Z,1008.13
2017-02-04T05:55:56.954Z,1008.1
2017-02-04T05:56:37.639Z,1008.11
2017-02-04T05:57:18.342Z,1008.09
2017-02-04T05:57:58.996Z,1008.15
2017-02-04T05:58:39.735Z,1008.1
2017-02-04T05:59:20.435Z,1008.11
2017-02-04T06:00:01.103Z,1008.11
2017-02-04T06:00:41.778Z,1008.14
2017-02-04T06:01:22.444Z,1008.16
2017-02-04T06:02:03.138Z,1008.11
2017-02-04T06:02:43.800Z,1008.13
2017-02-04T06:03:24.495Z,1008.12
2017-02-04T06:04:05.224Z,1008.12
2017-02-04T06:04:45.878Z,1008.16
2017-02-04T06:05:26.567Z,1008.18
2017-02-04T06:06:07.309Z,1008.19
2017-02-04T06:06:47.967Z,1008.09
2017-02-04T06:07:28.636Z,1008.15
2017-02-04T06:08:09.325Z,1008.1
2017-02-04T06:08:50.082Z,1008.15
2017-02-04T06:09:30.769Z,1008.16
2017-02-04T06:10:11.413Z,1008.15
2017-02-04T06:10:52.123Z,1008.14
2017-02-04T06:11:32.777Z,1008.19
2017-02-04T06:12:13.425Z,1008.15
2017-02-04T06:12:54.123Z,1008.18
2017-02-04T06:13:34.869Z,1008.12
2017-02-04T06:14:15.510Z,1008.14
2017-02-04T06:14:56.186Z,1007.98
2017-02-04T06:15:36.921Z,1008.09
2017-02-04T06:16:17.571Z,1008.07
2017-02-04T06:16:58.253Z,1008.12
2017-02-04T06:17:38.955Z,1008.07
2017-02-04T06:18:19.700Z,1008.05
2017-02-04T06:19:00.425Z,1008.07
2017-02-04T06:19:41.057Z,1008.13
2017-02-04T06:20:21.761Z,1008.08
2017-02-04T06:21:02.424Z,1008.06
2017-02-04T06:21:43.080Z,1008.05
2017-02-04T06:22:23.741Z,1008.1
2017-02-04T06:23:04.504Z,1008.05
2017-02-04T06:23:45.146Z,1008.07
2017-02-04T06:24:25.793Z,1008.09
2017-02-04T06:25:06.477Z,1008.11
2017-02-04T06:25:47.233Z,1008.14
2017-02-04T06:26:27.918Z,1008.11
2017-02-04T06:27:08.619Z,1008.14
2017-02-04T06:27:49.290Z,1008.14
2017-02-04T06:28:29.948Z,1008.1
2017-02-04T06:29:10.651Z,1008.12
2017-02-04T06:29:51.333Z,1008.12
2017-02-04T06:30:31.984Z,1008.13
2017-02-04T06:31:12.639Z,1008.14
2017-02-04T06:31:53.378Z,1008.21
2017-02-04T06:32:34.083Z,1008.14
2017-02-04T06:33:14.752Z,1008.2
2017-02-04T06:33:55.402Z,1008.2
2017-02-04T06:34:36.078Z,1008.2
2017-02-04T06:35:16.768Z,1008.18
2017-02-04T06:35:57.439Z,1008.16
2017-02-04T06:36:38.208Z,1008.17
2017-02-04T06:37:18.874Z,1008.14
2017-02-04T06:37:59.525Z,1008.2
2017-02-04T06:38:40.219Z,1008.22
2017-02-04T06:39:20.891Z,1008.14
2017-02-04T06:40:01.627Z,1008.15
2017-02-04T06:40:42.294Z,1008.18
2017-02-04T06:41:23.041Z,1008.16
2017-02-04T06:42:03.688Z,1008.19
2017-02-04T06:42:44.354Z,1008.22
2017-02-04T06:43:25.101Z,1008.24
2017-02-04T06:44:05.824Z,1008.21
2017-02-04T06:44:46.463Z,1008.26
2017-02-04T06:45:27.120Z,1008.2
2017-02-04T06:46:07.827Z,1008.21
2017-02-04T06:46:48.477Z,1008.21
2017-02-04T06:47:29.130Z,1008.22
2017-02-04T06:48:09.773Z,1008.26
2017-02-04T06:48:50.467Z,1008.25
2017-02-04T06:49:31.196Z,1008.27
2017-02-04T06:50:11.845Z,1008.28
2017-02-04T06:50:52.518Z,1008.28
2017-02-04T06:51:33.154Z,1008.27
2017-02-04T06:52:13.826Z,1008.27
2017-02-04T06:52:54.514Z,1008.27
2017-02-04T06:53:35.252Z,1008.29
2017-02-04T06:54:15.895Z,1008.31
2017-02-04T06:54:56.571Z,1008.27
2017-02-04T06:55:37.305Z,1008.3
2017-02-04T06:56:17.955Z,1008.32
2017-02-04T06:56:58.605Z,1008.34
2017-02-04T06:57:39.298Z,1008.31
2017-02-04T06:58:19.990Z,1008.35
2017-02-04T06:59:00.643Z,1008.39
2017-02-04T06:59:41.435Z,1008.38
2017-02-04T07:00:22.102Z,1008.38
2017-02-04T07:01:02.764Z,1008.42
2017-02-04T07:01:43.416Z,1008.37
2017-02-04T07:02:24.141Z,1008.46
2017-02-04T07:03:04.789Z,1008.49
2017-02-04T07:03:45.449Z,1008.43
2017-02-04T07:04:26.121Z,1008.45
2017-02-04T07:05:06.830Z,1008.44
2017-02-04T07:05:47.559Z,1008.45
2017-02-04T07:06:28.136Z,1008.5
2017-02-04T07:07:08.827Z,1008.49
2017-02-04T07:07:49.542Z,1008.57
2017-02-04T07:08:30.196Z,1008.54
2017-02-04T07:09:10.860Z,1008.55
2017-02-04T07:09:51.605Z,1008.57
2017-02-04T07:10:32.270Z,1008.52
2017-02-04T07:11:12.915Z,1008.59
2017-02-04T07:11:53.634Z,1008.57
2017-02-04T07:12:34.300Z,1008.64
2017-02-04T07:13:14.948Z,1008.58
2017-02-04T07:13:55.596Z,1008.56
2017-02-04T07:14:36.268Z,1008.55
2017-02-04T07:15:16.903Z,1008.5
2017-02-04T07:15:57.573Z,1008.55
2017-02-04T07:16:38.219Z,1008.69
2017-02-04T07:17:18.895Z,1008.66
2017-02-04T07:17:59.627Z,1008.58
2017-02-04T07:18:40.354Z,1008.64
2017-02-04T07:19:21.053Z,1008.59
2017-02-04T07:20:01.707Z,1008.55
2017-02-04T07:20:42.460Z,1008.64
2017-02-04T07:21:23.163Z,1008.64
2017-02-04T07:22:03.957Z,1008.66
2017-02-04T07:22:44.642Z,1008.62
2017-02-04T07:23:25.326Z,1008.67
2017-02-04T07:24:06.031Z,1008.61
2017-02-04T07:24:46.692Z,1008.57
2017-02-04T07:25:27.342Z,1008.61
2017-02-04T07:26:08.148Z,1008.58
2017-02-04T07:26:48.780Z,1008.65
2017-02-04T07:27:29.456Z,1008.69
2017-02-04T07:28:10.110Z,1008.68
2017-02-04T07:28:50.774Z,1008.7
2017-02-04T07:29:31.419Z,1008.63
2017-02-04T07:30:12.142Z,1008.66
2017-02-04T07:30:52.796Z,1008.67
2017-02-04T07:31:33.552Z,1008.69
2017-02-04T07:32:14.158Z,1008.72
2017-02-04T07:32:54.805Z,1008.7
2017-02-04T07:33:35.501Z,1008.71
2017-02-04T07:34:16.168Z,1008.77
2017-02-04T07:34:56.917Z,1008.71
2017-02-04T07:35:37.575Z,1008.86
2017-02-04T07:36:18.227Z,1008.75
2017-02-04T07:36:58.914Z,1008.78
2017-02-04T07:37:39.565Z,1008.78
2017-02-04T07:38:20.256Z,1008.8
2017-02-04T07:39:00.921Z,1008.79
2017-02-04T07:39:41.570Z,1008.83
2017-02-04T07:40:22.232Z,1008.72
2017-02-04T07:41:02.953Z,1008.79
2017-02-04T07:41:43.636Z,1008.78
2017-02-04T07:42:24.286Z,1008.73
2017-02-04T07:43:04.937Z,1008.77
2017-02-04T07:43:45.663Z,1008.78
2017-02-04T07:44:26.427Z,1008.78
2017-02-04T07:45:07.080Z,1008.75
2017-02-04T07:45:47.731Z,1008.81
2017-02-04T07:46:28.409Z,1008.75
2017-02-04T07:47:09.065Z,1008.81
2017-02-04T07:47:49.722Z,1008.76
2017-02-04T07:48:30.524Z,1008.79
2017-02-04T07:49:11.218Z,1008.76
2017-02-04T07:49:51.876Z,1008.81
2017-02-04T07:50:32.547Z,1008.81
2017-02-04T07:51:13.234Z,1008.79
2017-02-04T07:51:53.895Z,1008.77
2017-02-04T07:52:34.546Z,1008.78
2017-02-04T07:53:15.198Z,1008.81
2017-02-04T07:53:56.013Z,1008.82
2017-02-04T07:54:36.691Z,1008.79
2017-02-04T07:55:17.360Z,1008.77
2017-02-04T07:55:58.038Z,1008.76
2017-02-04T07:56:38.750Z,1008.79
2017-02-04T07:57:19.390Z,1008.8
2017-02-04T07:58:00.048Z,1008.75
2017-02-04T07:58:40.789Z,1008.73
2017-02-04T07:59:21.538Z,1008.73
2017-02-04T08:00:02.193Z,1008.73
2017-02-04T08:00:42.845Z,1008.74
2017-02-04T08:01:23.551Z,1008.71
2017-02-04T08:02:04.202Z,1008.7
2017-02-04T08:02:44.850Z,1008.77
2017-02-04T08:03:25.581Z,1008.77
2017-02-04T08:04:07.219Z,1008.76
2017-02-04T08:04:47.787Z,1008.8
2017-02-04T08:05:28.511Z,1008.79
2017-02-04T08:06:09.252Z,1008.84
2017-02-04T08:06:49.900Z,1008.78
2017-02-04T08:07:30.634Z,1008.79
2017-02-04T08:08:11.306Z,1008.8
2017-02-04T08:08:51.961Z,1008.8
2017-02-04T08:09:32.690Z,1008.76
2017-02-04T08:10:13.359Z,1008.8
2017-02-04T08:10:54.057Z,1008.76
2017-02-04T08:11:34.713Z,1008.8
2017-02-04T08:12:15.440Z,1008.8
2017-02-04T08:12:56.105Z,1008.82
2017-02-04T08:13:36.765Z,1008.83
2017-02-04T08:14:17.488Z,1008.82